createdAt,value
2022-12-13T00:01:47.168Z,-8.90
2022-12-13T00:04:15.828Z,-8.90
2022-12-13T00:06:44.594Z,-9.10
2022-12-13T00:09:14.888Z,-9.30
2022-12-13T00:11:44.390Z,-9.40
2022-12-13T00:14:14.172Z,-9.20
2022-12-13T00:16:47.912Z,-9.10
2022-12-13T00:19:17.420Z,-9.30
2022-12-13T00:21:45.617Z,-9.20
2022-12-13T00:24:14.685Z,-9.10
2022-12-13T00:26:44.436Z,-9.00
2022-12-13T00:29:12.805Z,-9.00
2022-12-13T00:32:00.345Z,-9.10
2022-12-13T00:34:29.459Z,-9.10
2022-12-13T00:36:59.681Z,-9.40
2022-12-13T00:39:27.897Z,-9.30
2022-12-13T00:41:57.562Z,-9.20
2022-12-13T00:44:25.850Z,-9.50
2022-12-13T00:46:54.010Z,-9.60
2022-12-13T00:49:22.458Z,-9.40
2022-12-13T00:51:50.929Z,-9.50
2022-12-13T00:54:19.449Z,-9.40
2022-12-13T00:56:47.683Z,-9.60
2022-12-13T00:59:17.321Z,-9.30
2022-12-13T01:01:46.110Z,-9.30
2022-12-13T01:04:14.722Z,-9.40
2022-12-13T01:06:45.306Z,-9.40
2022-12-13T01:09:18.787Z,-9.50
2022-12-13T01:11:47.877Z,-9.60
2022-12-13T01:14:18.903Z,-9.40
2022-12-13T01:16:47.199Z,-9.50
2022-12-13T01:19:15.424Z,-9.60
2022-12-13T01:21:43.708Z,-9.70
2022-12-13T01:24:12.058Z,-9.80
2022-12-13T01:26:40.477Z,-9.80
2022-12-13T01:29:11.329Z,-9.60
2022-12-13T01:31:41.840Z,-9.80
2022-12-13T01:34:11.419Z,-9.80
2022-12-13T01:36:40.453Z,-9.80
2022-12-13T01:39:14.580Z,-9.80
2022-12-13T01:41:44.680Z,-9.70
2022-12-13T01:44:45.820Z,-9.50
2022-12-13T01:47:22.341Z,-9.50
2022-12-13T01:49:51.706Z,-9.40
2022-12-13T01:52:20.052Z,-9.90
2022-12-13T01:54:51.698Z,-9.90
2022-12-13T01:57:23.615Z,-9.90
2022-12-13T01:59:52.630Z,-10.00
2022-12-13T02:02:23.213Z,-9.90
2022-12-13T02:04:56.234Z,-9.80
2022-12-13T02:07:30.596Z,-9.60
2022-12-13T02:10:01.201Z,-9.50
2022-12-13T02:12:32.189Z,-9.60
2022-12-13T02:15:01.924Z,-9.40
2022-12-13T02:17:44.153Z,-9.30
2022-12-13T02:20:49.304Z,-9.10
2022-12-13T02:23:43.326Z,-9.10
2022-12-13T02:26:43.137Z,-9.10
2022-12-13T02:29:48.734Z,-9.50
2022-12-13T02:32:27.993Z,-9.50
2022-12-13T02:35:06.440Z,-9.40
2022-12-13T02:37:46.057Z,-9.20
2022-12-13T02:40:19.859Z,-9.30
2022-12-13T02:42:54.093Z,-9.40
2022-12-13T02:45:29.251Z,-9.50
2022-12-13T02:48:01.458Z,-9.40
2022-12-13T02:50:31.075Z,-9.80
2022-12-13T02:52:59.877Z,-9.50
2022-12-13T02:55:32.491Z,-10.00
2022-12-13T02:58:00.668Z,-9.90
2022-12-13T03:00:37.591Z,-9.80
2022-12-13T03:03:20.724Z,-9.60
2022-12-13T03:06:12.130Z,-9.70
2022-12-13T03:08:48.152Z,-9.80
2022-12-13T03:11:19.076Z,-9.70
2022-12-13T03:13:52.691Z,-9.60
2022-12-13T03:16:30.170Z,-9.60
2022-12-13T03:19:02.829Z,-9.40
2022-12-13T03:21:31.711Z,-9.20
2022-12-13T03:23:59.758Z,-9.40
2022-12-13T03:26:28.587Z,-9.40
2022-12-13T03:28:56.846Z,-9.30
2022-12-13T03:31:25.167Z,-9.20
2022-12-13T03:33:53.260Z,-9.20
2022-12-13T03:36:23.154Z,-9.50
2022-12-13T03:38:53.300Z,-9.70
2022-12-13T03:41:24.284Z,-9.60
2022-12-13T03:43:52.675Z,-9.80
2022-12-13T03:46:20.865Z,-9.90
2022-12-13T03:48:48.950Z,-9.80
2022-12-13T03:51:17.095Z,-9.90
2022-12-13T03:53:46.519Z,-10.00
2022-12-13T03:56:14.687Z,-9.80
2022-12-13T03:58:43.242Z,-9.70
2022-12-13T04:01:13.508Z,-9.70
2022-12-13T04:03:43.111Z,-10.00
2022-12-13T04:06:11.381Z,-9.80
2022-12-13T04:08:40.692Z,-9.60
2022-12-13T04:11:28.008Z,-9.60
2022-12-13T04:13:58.152Z,-10.20
2022-12-13T04:16:28.249Z,-10.30
2022-12-13T04:18:56.377Z,-10.20
2022-12-13T04:21:24.977Z,-10.10
2022-12-13T04:23:53.121Z,-9.90
2022-12-13T04:26:22.568Z,-9.80
2022-12-13T04:28:54.443Z,-9.90
2022-12-13T04:31:23.242Z,-9.80
2022-12-13T04:33:51.828Z,-9.70
2022-12-13T04:36:32.203Z,-9.70
2022-12-13T04:39:01.700Z,-9.80
2022-12-13T04:41:36.297Z,-10.00
2022-12-13T04:44:05.906Z,-9.90
2022-12-13T04:46:34.146Z,-10.10
2022-12-13T04:49:02.558Z,-10.20
2022-12-13T04:51:31.281Z,-10.20
2022-12-13T04:54:23.472Z,-10.30
2022-12-13T04:56:48.834Z,-10.50
2022-12-13T04:59:16.950Z,-10.70
2022-12-13T05:01:45.109Z,-10.50
2022-12-13T05:04:13.556Z,-10.50
2022-12-13T05:06:41.975Z,-10.30
2022-12-13T05:09:11.423Z,-10.30
2022-12-13T05:11:45.946Z,-10.10
2022-12-13T05:14:23.572Z,-10.30
2022-12-13T05:16:52.153Z,-10.30
2022-12-13T05:19:20.892Z,-10.30
2022-12-13T05:21:50.009Z,-10.20
2022-12-13T05:24:18.131Z,-10.20
2022-12-13T05:26:46.283Z,-10.00
2022-12-13T05:29:15.828Z,-9.90
2022-12-13T05:31:44.102Z,-9.70
2022-12-13T05:34:12.328Z,-9.50
2022-12-13T05:36:40.665Z,-9.40
2022-12-13T05:39:29.362Z,-9.40
2022-12-13T05:42:01.982Z,-9.50
2022-12-13T05:44:32.665Z,-10.10
2022-12-13T05:47:02.249Z,-10.00
2022-12-13T05:49:30.971Z,-9.80
2022-12-13T05:51:59.191Z,-9.80
2022-12-13T05:54:27.517Z,-9.70
2022-12-13T05:56:55.685Z,-9.60
2022-12-13T05:59:24.236Z,-9.60
2022-12-13T06:01:55.615Z,-10.00
2022-12-13T06:04:23.828Z,-10.10
2022-12-13T06:06:52.666Z,-10.00
2022-12-13T06:09:21.112Z,-10.20
2022-12-13T06:11:49.572Z,-10.10
2022-12-13T06:14:22.686Z,-10.50
2022-12-13T06:16:53.935Z,-10.30
2022-12-13T06:19:23.539Z,-10.20
2022-12-13T06:21:52.342Z,-10.30
2022-12-13T06:24:22.494Z,-10.40
2022-12-13T06:26:51.974Z,-10.50
2022-12-13T06:29:23.884Z,-10.60
2022-12-13T06:32:01.110Z,-10.60
2022-12-13T06:34:30.571Z,-10.50
2022-12-13T06:36:59.065Z,-10.40
2022-12-13T06:39:33.164Z,-10.20
2022-12-13T06:42:03.021Z,-10.20
2022-12-13T06:44:31.103Z,-10.50
2022-12-13T06:47:11.977Z,-10.40
2022-12-13T06:49:42.938Z,-10.20
2022-12-13T06:52:13.096Z,-10.20
2022-12-13T06:54:41.760Z,-10.10
2022-12-13T06:57:09.987Z,-10.10
2022-12-13T06:59:38.235Z,-10.20
2022-12-13T07:02:15.315Z,-10.30
2022-12-13T07:04:53.845Z,-10.50
2022-12-13T07:07:22.104Z,-10.30
2022-12-13T07:09:50.165Z,-10.60
2022-12-13T07:12:19.267Z,-10.60
2022-12-13T07:14:47.569Z,-10.80
2022-12-13T07:17:33.359Z,-10.80
2022-12-13T07:20:07.986Z,-10.80
2022-12-13T07:22:41.581Z,-10.50
2022-12-13T07:25:27.842Z,-10.50
2022-12-13T07:28:01.930Z,-10.50
2022-12-13T07:30:31.288Z,-10.20
2022-12-13T07:33:01.583Z,-10.20
2022-12-13T07:35:30.406Z,-10.20
2022-12-13T07:37:58.647Z,-10.20
2022-12-13T07:40:26.886Z,-10.70
2022-12-13T07:42:56.424Z,-10.50
2022-12-13T07:45:25.283Z,-10.30
2022-12-13T07:47:53.606Z,-10.50
2022-12-13T07:50:24.286Z,-10.60
2022-12-13T07:52:54.431Z,-10.40
2022-12-13T07:55:33.117Z,-10.20
2022-12-13T07:58:06.916Z,-10.10
2022-12-13T08:00:35.417Z,-10.00
2022-12-13T08:03:03.712Z,-10.10
2022-12-13T08:05:39.007Z,-10.30
2022-12-13T08:08:09.353Z,-10.10
2022-12-13T08:10:37.550Z,-10.30
2022-12-13T08:13:06.067Z,-10.30
2022-12-13T08:15:34.245Z,-10.20
2022-12-13T08:18:03.932Z,-10.20
2022-12-13T08:20:33.587Z,-10.00
2022-12-13T08:23:02.579Z,-9.90
2022-12-13T08:25:32.366Z,-9.80
2022-12-13T08:28:01.919Z,-9.40
2022-12-13T08:30:31.800Z,-9.40
2022-12-13T08:33:04.788Z,-9.40
2022-12-13T08:35:35.379Z,-9.20
2022-12-13T08:38:04.402Z,-9.70
2022-12-13T08:40:32.497Z,-9.60
2022-12-13T08:43:00.601Z,-9.70
2022-12-13T08:45:28.921Z,-9.70
2022-12-13T08:47:59.835Z,-9.70
2022-12-13T08:50:28.626Z,-9.70
2022-12-13T08:52:58.895Z,-9.50
2022-12-13T08:55:31.439Z,-9.30
2022-12-13T08:58:04.990Z,-9.30
2022-12-13T09:00:36.231Z,-9.20
2022-12-13T09:03:04.947Z,-8.90
2022-12-13T09:05:35.488Z,-8.70
2022-12-13T09:08:23.495Z,-8.70
2022-12-13T09:11:00.785Z,-8.50
2022-12-13T09:13:31.866Z,-8.40
2022-12-13T09:16:04.476Z,-8.40
2022-12-13T09:18:36.470Z,-8.50
2022-12-13T09:21:10.959Z,-8.60
2022-12-13T09:23:45.686Z,-8.40
2022-12-13T09:26:16.363Z,-8.50
2022-12-13T09:28:44.533Z,-8.40
2022-12-13T09:31:15.822Z,-8.30
2022-12-13T09:33:45.013Z,-8.10
2022-12-13T09:36:15.265Z,-7.90
2022-12-13T09:38:44.955Z,-7.80
2022-12-13T09:41:28.927Z,-7.60
2022-12-13T09:44:02.400Z,-7.40
2022-12-13T09:46:35.011Z,-7.30
2022-12-13T09:49:22.589Z,-7.20
2022-12-13T09:52:10.257Z,-7.10
2022-12-13T09:54:48.858Z,-7.00
2022-12-13T09:57:32.283Z,-6.40
2022-12-13T10:00:05.761Z,-6.00
2022-12-13T10:02:43.143Z,-5.80
2022-12-13T10:05:22.423Z,-5.60
2022-12-13T10:07:53.538Z,-5.40
2022-12-13T10:10:23.386Z,-5.30
2022-12-13T10:12:59.209Z,-5.10
2022-12-13T10:15:28.948Z,-4.70
2022-12-13T10:17:57.249Z,-4.60
2022-12-13T10:20:28.964Z,-4.50
2022-12-13T10:25:51.519Z,-4.40
2022-12-13T10:28:25.629Z,-4.30
2022-12-13T10:30:54.104Z,-4.10
2022-12-13T10:33:27.924Z,-4.60
2022-12-13T10:36:19.988Z,-4.80
2022-12-13T10:38:51.587Z,-4.50
2022-12-13T10:41:33.585Z,-4.00
2022-12-13T10:44:29.382Z,-3.70
2022-12-13T10:47:06.564Z,-3.50
2022-12-13T10:49:40.925Z,-3.20
2022-12-13T10:52:31.358Z,-3.10
2022-12-13T10:55:04.474Z,-3.10
2022-12-13T10:57:54.381Z,-3.10
2022-12-13T11:00:36.511Z,-3.00
2022-12-13T11:03:05.726Z,-2.80
2022-12-13T11:05:35.819Z,-3.10
2022-12-13T11:08:22.759Z,-3.20
2022-12-13T11:10:59.454Z,-3.60
2022-12-13T11:13:36.930Z,-3.40
2022-12-13T11:16:06.797Z,-4.10
2022-12-13T11:18:40.501Z,-3.90
2022-12-13T11:21:09.020Z,-3.40
2022-12-13T11:23:41.137Z,-3.30
2022-12-13T11:26:12.456Z,-3.00
2022-12-13T11:29:06.481Z,-2.70
2022-12-13T11:31:43.717Z,-2.30
2022-12-13T11:34:20.049Z,-2.00
2022-12-13T11:36:57.171Z,-1.90
2022-12-13T11:39:32.021Z,-1.70
2022-12-13T11:42:06.301Z,-1.60
2022-12-13T11:44:47.739Z,-1.80
2022-12-13T11:47:24.132Z,-1.60
2022-12-13T11:49:53.770Z,-1.50
2022-12-13T11:52:26.940Z,-2.00
2022-12-13T11:55:00.459Z,-1.90
2022-12-13T11:57:38.826Z,-1.50
2022-12-13T12:00:33.600Z,-1.40
2022-12-13T12:03:19.640Z,-1.50
2022-12-13T12:05:55.737Z,-1.10
2022-12-13T12:08:33.101Z,-0.90
2022-12-13T12:11:09.568Z,-0.70
2022-12-13T12:13:51.654Z,-0.90
2022-12-13T12:16:31.155Z,-1.40
2022-12-13T12:19:01.625Z,-2.00
2022-12-13T12:22:13.178Z,-1.70
2022-12-13T12:24:47.986Z,-1.80
2022-12-13T12:27:28.406Z,-2.00
2022-12-13T12:30:05.507Z,-1.80
2022-12-13T12:32:44.571Z,-1.40
2022-12-13T12:35:38.132Z,-1.50
2022-12-13T12:38:33.422Z,-1.10
2022-12-13T12:41:25.617Z,-0.90
2022-12-13T12:44:01.343Z,-1.10
2022-12-13T12:47:09.064Z,-1.70
2022-12-13T12:50:17.166Z,-1.80
2022-12-13T12:52:57.071Z,-2.10
2022-12-13T12:55:36.771Z,-2.20
2022-12-13T12:58:16.746Z,-2.60
2022-12-13T13:00:52.885Z,-2.20
2022-12-13T13:03:23.779Z,-1.80
2022-12-13T13:06:01.867Z,-1.40
2022-12-13T13:08:37.165Z,-1.80
2022-12-13T13:11:24.708Z,-1.70
2022-12-13T13:14:03.781Z,-1.00
2022-12-13T13:16:36.301Z,-0.80
2022-12-13T13:19:04.986Z,0.10
2022-12-13T13:21:36.399Z,0.20
2022-12-13T13:24:25.136Z,0.20
2022-12-13T13:26:56.407Z,0.20
2022-12-13T13:29:43.867Z,-0.20
2022-12-13T13:32:30.203Z,-0.80
2022-12-13T13:35:51.044Z,-0.40
2022-12-13T13:39:01.756Z,0.00
2022-12-13T13:42:09.559Z,0.10
2022-12-13T13:45:03.301Z,-0.60
2022-12-13T13:47:44.613Z,-0.70
2022-12-13T13:51:12.690Z,-1.00
2022-12-13T13:54:05.343Z,-1.30
2022-12-13T13:57:12.569Z,-1.60
2022-12-13T14:00:06.653Z,-2.10
2022-12-13T14:03:22.504Z,-2.30
2022-12-13T14:06:41.956Z,-2.30
2022-12-13T14:09:42.899Z,-2.50
2022-12-13T14:12:46.876Z,-3.00
2022-12-13T14:16:03.149Z,-3.20
2022-12-13T14:19:05.733Z,-3.20
2022-12-13T14:21:44.767Z,-3.90
2022-12-13T14:24:22.148Z,-4.10
2022-12-13T14:27:07.229Z,-4.00
2022-12-13T14:29:40.885Z,-3.80
2022-12-13T14:32:26.408Z,-3.80
2022-12-13T14:34:56.177Z,-4.00
2022-12-13T14:37:28.653Z,-4.30
2022-12-13T14:39:57.235Z,-4.40
2022-12-13T14:42:29.346Z,-4.40
2022-12-13T14:45:15.217Z,-4.30
2022-12-13T14:47:44.319Z,-4.20
2022-12-13T14:50:18.041Z,-4.50
2022-12-13T14:52:48.837Z,-4.90
2022-12-13T14:55:25.927Z,-4.80
2022-12-13T14:57:55.599Z,-5.00
2022-12-13T15:00:28.353Z,-4.80
2022-12-13T15:02:59.854Z,-4.90
2022-12-13T15:05:30.002Z,-4.80
2022-12-13T15:07:58.560Z,-4.80
2022-12-13T15:10:33.006Z,-4.90
2022-12-13T15:13:01.585Z,-5.60
2022-12-13T15:15:34.660Z,-5.80
2022-12-13T15:18:08.090Z,-5.60
2022-12-13T15:20:41.648Z,-6.00
2022-12-13T15:23:16.772Z,-6.00
2022-12-13T15:25:46.809Z,-6.10
2022-12-13T15:28:21.676Z,-6.10
2022-12-13T15:30:52.130Z,-6.00
2022-12-13T15:33:34.445Z,-5.90
2022-12-13T15:36:09.873Z,-6.00
2022-12-13T15:38:41.198Z,-6.10
2022-12-13T15:41:18.268Z,-6.20
2022-12-13T15:43:49.222Z,-6.90
2022-12-13T15:46:26.428Z,-6.90
2022-12-13T15:48:57.502Z,-6.80
2022-12-13T15:51:28.434Z,-6.70
2022-12-13T15:54:05.248Z,-6.40
2022-12-13T15:56:35.497Z,-6.30
2022-12-13T15:59:05.076Z,-6.40
2022-12-13T16:01:36.226Z,-6.20
2022-12-13T16:04:07.265Z,-6.30
2022-12-13T16:06:35.538Z,-6.40
2022-12-13T16:09:07.956Z,-6.50
2022-12-13T16:11:40.303Z,-6.90
2022-12-13T16:14:40.104Z,-7.00
2022-12-13T16:17:24.479Z,-6.90
2022-12-13T16:19:55.189Z,-6.80
2022-12-13T16:22:24.150Z,-6.70
2022-12-13T16:24:53.400Z,-7.00
2022-12-13T16:27:21.575Z,-7.10
2022-12-13T16:29:49.743Z,-6.90
2022-12-13T16:32:18.240Z,-6.90
2022-12-13T16:34:46.434Z,-7.00
2022-12-13T16:37:25.990Z,-7.20
2022-12-13T16:39:55.427Z,-7.20
2022-12-13T16:42:26.150Z,-7.00
2022-12-13T16:45:40.750Z,-7.40
2022-12-13T16:47:48.723Z,-7.30
2022-12-13T16:50:19.093Z,-7.20
2022-12-13T16:52:49.124Z,-7.60
2022-12-13T16:55:17.491Z,-7.50
2022-12-13T16:57:45.928Z,-7.60
2022-12-13T17:00:16.003Z,-7.50
2022-12-13T17:02:44.169Z,-7.30
2022-12-13T17:05:12.334Z,-7.40
2022-12-13T17:07:40.828Z,-7.20
2022-12-13T17:10:11.449Z,-7.20
2022-12-13T17:12:39.720Z,-7.20
2022-12-13T17:15:09.939Z,-7.10
2022-12-13T17:17:38.362Z,-7.00
2022-12-13T17:20:08.583Z,-7.20
2022-12-13T17:22:36.779Z,-7.20
2022-12-13T17:25:06.160Z,-7.20
2022-12-13T17:27:36.332Z,-7.30
2022-12-13T17:30:04.847Z,-7.10
2022-12-13T17:32:32.951Z,-6.90
2022-12-13T17:35:02.922Z,-6.70
2022-12-13T17:37:32.795Z,-7.10
2022-12-13T17:40:00.857Z,-7.30
2022-12-13T17:42:29.294Z,-7.10
2022-12-13T17:44:58.712Z,-7.20
2022-12-13T17:47:26.808Z,-7.20
2022-12-13T17:49:55.010Z,-7.30
2022-12-13T17:52:23.133Z,-7.40
2022-12-13T17:54:51.444Z,-7.40
2022-12-13T17:57:19.807Z,-7.70
2022-12-13T17:59:48.305Z,-7.80
2022-12-13T18:02:22.763Z,-7.70
2022-12-13T18:04:51.476Z,-7.70
2022-12-13T18:07:19.866Z,-7.70
2022-12-13T18:09:48.087Z,-7.80
2022-12-13T18:12:16.335Z,-7.80
2022-12-13T18:14:44.688Z,-7.80
2022-12-13T18:17:13.992Z,-7.60
2022-12-13T18:19:43.622Z,-7.50
2022-12-13T18:22:12.507Z,-7.40
2022-12-13T18:24:40.576Z,-7.50
2022-12-13T18:27:08.774Z,-7.40
2022-12-13T18:29:41.766Z,-7.40
2022-12-13T18:32:23.302Z,-7.30
2022-12-13T18:34:54.688Z,-7.20
2022-12-13T18:37:22.952Z,-7.40
2022-12-13T18:39:54.930Z,-7.30
2022-12-13T18:42:23.252Z,-7.30
2022-12-13T18:44:54.801Z,-7.40
2022-12-13T18:47:23.475Z,-7.30
2022-12-13T18:49:55.199Z,-7.30
2022-12-13T18:52:24.406Z,-7.30
2022-12-13T18:54:54.387Z,-7.20
2022-12-13T18:57:22.918Z,-7.20
2022-12-13T18:59:54.685Z,-7.30
2022-12-13T19:02:23.176Z,-7.50
2022-12-13T19:04:55.061Z,-7.30
2022-12-13T19:07:24.075Z,-7.40
2022-12-13T19:09:54.989Z,-7.20
2022-12-13T19:12:23.649Z,-7.30
2022-12-13T19:14:54.929Z,-7.30
2022-12-13T19:17:23.379Z,-7.30
2022-12-13T19:19:52.841Z,-7.20
2022-12-13T19:22:21.666Z,-7.00
2022-12-13T19:24:50.082Z,-7.00
2022-12-13T19:27:18.211Z,-7.00
2022-12-13T19:29:46.271Z,-6.90
2022-12-13T19:32:14.474Z,-6.80
2022-12-13T19:34:42.819Z,-6.80
2022-12-13T19:37:12.429Z,-6.90
2022-12-13T19:39:40.534Z,-6.80
2022-12-13T19:42:10.810Z,-7.00
2022-12-13T19:44:38.879Z,-6.90
2022-12-13T19:47:07.643Z,-7.00
2022-12-13T19:49:35.864Z,-7.10
2022-12-13T19:52:04.002Z,-7.10
2022-12-13T19:54:33.903Z,-7.30
2022-12-13T19:57:07.062Z,-7.20
2022-12-13T19:59:35.732Z,-7.10
2022-12-13T20:02:05.636Z,-7.30
2022-12-13T20:04:33.850Z,-7.20
2022-12-13T20:07:02.231Z,-7.20
2022-12-13T20:09:30.461Z,-7.10
2022-12-13T20:12:00.072Z,-7.10
2022-12-13T20:14:28.423Z,-7.20
2022-12-13T20:16:56.567Z,-7.20
2022-12-13T20:19:24.737Z,-7.20
2022-12-13T20:21:56.858Z,-7.40
2022-12-13T20:24:25.456Z,-7.30
2022-12-13T20:26:53.537Z,-7.10
2022-12-13T20:29:23.075Z,-7.00
2022-12-13T20:31:52.607Z,-7.20
2022-12-13T20:34:21.858Z,-7.00
2022-12-13T20:36:50.196Z,-6.90
2022-12-13T20:39:18.577Z,-6.90
2022-12-13T20:41:46.697Z,-7.00
2022-12-13T20:44:15.542Z,-7.20
2022-12-13T20:46:45.212Z,-7.20
2022-12-13T20:49:13.318Z,-7.20
2022-12-13T20:51:42.611Z,-7.30
2022-12-13T20:54:10.745Z,-7.20
2022-12-13T20:56:39.909Z,-7.20
2022-12-13T20:59:11.624Z,-7.20
2022-12-13T21:01:41.561Z,-7.20
2022-12-13T21:04:12.752Z,-7.20
2022-12-13T21:06:42.742Z,-7.20
2022-12-13T21:09:12.603Z,-7.10
2022-12-13T21:11:42.188Z,-7.20
2022-12-13T21:14:18.831Z,-7.10
2022-12-13T21:16:51.674Z,-7.00
2022-12-13T21:19:23.505Z,-7.10
2022-12-13T21:21:52.279Z,-7.20
2022-12-13T21:24:21.688Z,-7.10
2022-12-13T21:26:51.196Z,-7.00
2022-12-13T21:29:19.798Z,-6.90
2022-12-13T21:31:49.723Z,-6.80
2022-12-13T21:34:21.515Z,-7.00
2022-12-13T21:36:52.035Z,-7.00
2022-12-13T21:39:22.536Z,-7.10
2022-12-13T21:41:51.255Z,-7.10
2022-12-13T21:44:19.737Z,-7.10
2022-12-13T21:49:38.775Z,-6.90
2022-12-13T21:52:07.013Z,-6.80
2022-12-13T21:54:35.117Z,-6.80
2022-12-13T21:57:20.812Z,-6.80
2022-12-13T21:59:49.104Z,-6.90
2022-12-13T22:02:19.353Z,-6.80
2022-12-13T22:04:51.516Z,-6.80
2022-12-13T22:07:21.068Z,-6.70
2022-12-13T22:09:49.848Z,-6.70
2022-12-13T22:12:23.075Z,-6.60
2022-12-13T22:14:52.287Z,-6.50
2022-12-13T22:17:24.994Z,-6.60
2022-12-13T22:19:56.755Z,-6.70
2022-12-13T22:22:26.092Z,-6.70
2022-12-13T22:24:54.367Z,-6.70
2022-12-13T22:27:25.469Z,-6.70
2022-12-13T22:29:56.092Z,-6.50
2022-12-13T22:32:25.738Z,-6.60
2022-12-13T22:34:54.129Z,-6.50
2022-12-13T22:37:23.900Z,-6.60
2022-12-13T22:39:52.038Z,-6.80
2022-12-13T22:42:20.184Z,-6.80
2022-12-13T22:44:48.646Z,-6.70
2022-12-13T22:47:17.335Z,-6.70
2022-12-13T22:49:48.720Z,-6.70
2022-12-13T22:52:17.616Z,-6.70
2022-12-13T22:54:47.126Z,-6.70
2022-12-13T22:57:15.403Z,-6.70
2022-12-13T22:59:43.443Z,-6.80
2022-12-13T23:02:12.475Z,-7.00
2022-12-13T23:04:41.040Z,-6.80
2022-12-13T23:07:09.120Z,-6.70
2022-12-13T23:09:37.278Z,-6.70
2022-12-13T23:12:24.854Z,-6.60
2022-12-13T23:14:52.944Z,-6.70
2022-12-13T23:17:21.606Z,-6.70
2022-12-13T23:19:53.307Z,-6.60
2022-12-13T23:22:23.404Z,-6.60
2022-12-13T23:24:51.935Z,-6.50
2022-12-13T23:27:24.162Z,-6.50
2022-12-13T23:29:52.575Z,-6.60
2022-12-13T23:32:21.105Z,-6.70
2022-12-13T23:34:49.168Z,-6.70
2022-12-13T23:37:17.497Z,-6.70
2022-12-13T23:39:45.545Z,-6.80
2022-12-13T23:42:13.711Z,-6.60
2022-12-13T23:44:43.295Z,-6.40
2022-12-13T23:47:12.008Z,-6.50
2022-12-13T23:49:40.190Z,-6.50
2022-12-13T23:52:08.319Z,-6.50
2022-12-13T23:54:39.306Z,-6.50
2022-12-13T23:57:07.394Z,-6.50
2022-12-13T23:59:35.924Z,-6.50
